Bicas, Brazil
Current Conditions -  °F | °C
As of 5:42 PM on Tuesday 21 Oct 2014 (Local Time) from SBBQ Reporting Station
Haze Haze  
Wind Chill: 59°   Ceiling: 500
Heat Index: 59°   Visibility: 1.8mi
Dew Point: 57°   Wind: 8mph
Humidity: 94%   Direction: 140°SE
Pressure: 30.21"   Gusts: NA
Location:  21.73°S, 43.06°W
Report Text: SBBQ 211942Z 14007KT 3000 BR OVC005 15/14 Q1023
Loading
Personal Weather Stations






























Interactive Weather Map
Tropical Storm Tracking
New forecast layout! Learn more

10-Day Weather Forecast

Advertisements
Track Severe Weather on mobile